sensor_id;sensor_type;location;lat;lon;timestamp;pressure;altitude;pressure_sealevel;temperature;humidity
60307;BME280;46155;52.364;6.580;2023-05-03T03:01:57;102658.44;;;3.71;95.01
60307;BME280;46155;52.364;6.580;2023-05-03T03:04:22;102645.84;;;3.59;95.37
60307;BME280;46155;52.364;6.580;2023-05-03T03:06:47;102651.22;;;3.68;95.08
60307;BME280;46155;52.364;6.580;2023-05-03T03:09:12;102649.38;;;3.67;94.98
60307;BME280;46155;52.364;6.580;2023-05-03T03:11:38;102664.97;;;3.67;94.45
60307;BME280;46155;52.364;6.580;2023-05-03T03:14:03;102656.19;;;3.74;94.68
60307;BME280;46155;52.364;6.580;2023-05-03T03:16:28;102656.00;;;3.79;93.44
60307;BME280;46155;52.364;6.580;2023-05-03T03:18:54;102655.25;;;3.81;93.02
60307;BME280;46155;52.364;6.580;2023-05-03T03:21:19;102644.69;;;3.79;93.24
60307;BME280;46155;52.364;6.580;2023-05-03T03:23:44;102652.69;;;3.73;93.84
60307;BME280;46155;52.364;6.580;2023-05-03T03:26:10;102655.69;;;3.62;95.50
60307;BME280;46155;52.364;6.580;2023-05-03T03:28:35;102639.03;;;3.38;98.13
60307;BME280;46155;52.364;6.580;2023-05-03T03:31:01;102655.75;;;3.19;99.09
60307;BME280;46155;52.364;6.580;2023-05-03T03:33:27;102646.88;;;3.02;100.00
60307;BME280;46155;52.364;6.580;2023-05-03T03:35:52;102648.72;;;3.03;100.00
60307;BME280;46155;52.364;6.580;2023-05-03T03:38:17;102637.97;;;3.00;100.00
60307;BME280;46155;52.364;6.580;2023-05-03T03:40:43;102636.31;;;3.08;99.97
60307;BME280;46155;52.364;6.580;2023-05-03T03:43:08;102632.75;;;3.15;99.35
60307;BME280;46155;52.364;6.580;2023-05-03T03:45:34;102633.53;;;3.21;98.77
60307;BME280;46155;52.364;6.580;2023-05-03T03:47:59;102636.84;;;3.20;99.13
60307;BME280;46155;52.364;6.580;2023-05-03T03:50:25;102642.44;;;3.01;100.00
60307;BME280;46155;52.364;6.580;2023-05-03T03:52:50;102643.16;;;2.93;100.00
60307;BME280;46155;52.364;6.580;2023-05-03T03:55:16;102646.50;;;2.78;100.00
60307;BME280;46155;52.364;6.580;2023-05-03T03:57:41;102648.72;;;2.82;100.00
60307;BME280;46155;52.364;6.580;2023-05-03T04:00:07;102625.75;;;2.70;100.00
60307;BME280;46155;52.364;6.580;2023-05-03T04:02:36;102649.47;;;3.02;100.00
60307;BME280;46155;52.364;6.580;2023-05-03T04:05:01;102665.22;;;3.11;100.00
60307;BME280;46155;52.364;6.580;2023-05-03T04:07:26;102655.56;;;3.17;100.00
60307;BME280;46155;52.364;6.580;2023-05-03T04:09:52;102660.97;;;3.33;100.00
60307;BME280;46155;52.364;6.580;2023-05-03T04:12:17;102666.88;;;3.39;97.62
60307;BME280;46155;52.364;6.580;2023-05-03T04:14:42;102667.78;;;3.40;96.68
60307;BME280;46155;52.364;6.580;2023-05-03T04:17:08;102677.25;;;3.39;96.23
60307;BME280;46155;52.364;6.580;2023-05-03T04:19:33;102671.66;;;3.51;100.00
60307;BME280;46155;52.364;6.580;2023-05-03T04:21:59;102674.41;;;3.67;96.66
60307;BME280;46155;52.364;6.580;2023-05-03T04:24:25;102680.19;;;3.57;95.74
60307;BME280;46155;52.364;6.580;2023-05-03T04:26:51;102683.34;;;3.54;97.34
60307;BME280;46155;52.364;6.580;2023-05-03T04:29:17;102686.88;;;3.48;98.26
60307;BME280;46155;52.364;6.580;2023-05-03T04:31:44;102690.41;;;3.41;99.37
60307;BME280;46155;52.364;6.580;2023-05-03T04:34:10;102697.28;;;3.40;99.18
60307;BME280;46155;52.364;6.580;2023-05-03T04:36:39;102693.56;;;3.38;99.74
60307;BME280;46155;52.364;6.580;2023-05-03T04:39:06;102698.56;;;3.37;100.00
60307;BME280;46155;52.364;6.580;2023-05-03T04:41:31;102695.81;;;3.35;100.00
60307;BME280;46155;52.364;6.580;2023-05-03T04:43:57;102704.69;;;3.37;100.00
60307;BME280;46155;52.364;6.580;2023-05-03T04:46:22;102701.34;;;3.38;100.00
60307;BME280;46155;52.364;6.580;2023-05-03T04:48:47;102708.41;;;3.39;100.00
60307;BME280;46155;52.364;6.580;2023-05-03T04:51:13;102708.41;;;3.39;100.00
60307;BME280;46155;52.364;6.580;2023-05-03T04:53:38;102709.88;;;3.37;100.00
60307;BME280;46155;52.364;6.580;2023-05-03T04:56:04;102712.47;;;3.37;100.00
60307;BME280;46155;52.364;6.580;2023-05-03T04:58:30;102714.34;;;3.38;100.00
60307;BME280;46155;52.364;6.580;2023-05-03T05:00:55;102717.28;;;3.41;100.00
60307;BME280;46155;52.364;6.580;2023-05-03T05:03:21;102718.44;;;3.43;100.00
60307;BME280;46155;52.364;6.580;2023-05-03T05:05:46;102721.94;;;3.51;100.00
60307;BME280;46155;52.364;6.580;2023-05-03T05:08:11;102721.00;;;3.58;100.00
60307;BME280;46155;52.364;6.580;2023-05-03T05:10:40;102723.97;;;3.54;100.00
60307;BME280;46155;52.364;6.580;2023-05-03T05:13:05;102714.16;;;3.44;100.00
60307;BME280;46155;52.364;6.580;2023-05-03T05:15:31;102722.50;;;3.34;100.00
60307;BME280;46155;52.364;6.580;2023-05-03T05:17:56;102725.84;;;3.26;100.00
60307;BME280;46155;52.364;6.580;2023-05-03T05:20:21;102738.84;;;3.33;100.00
60307;BME280;46155;52.364;6.580;2023-05-03T05:22:47;102739.94;;;3.42;100.00
60307;BME280;46155;52.364;6.580;2023-05-03T05:25:12;102745.09;;;3.57;100.00
60307;BME280;46155;52.364;6.580;2023-05-03T05:27:37;102743.63;;;3.59;100.00
60307;BME280;46155;52.364;6.580;2023-05-03T05:30:03;102746.44;;;3.46;100.00
60307;BME280;46155;52.364;6.580;2023-05-03T05:32:29;102748.84;;;3.44;100.00
60307;BME280;46155;52.364;6.580;2023-05-03T05:34:55;102739.53;;;3.61;100.00
60307;BME280;46155;52.364;6.580;2023-05-03T05:37:24;102756.00;;;3.97;100.00
60307;BME280;46155;52.364;6.580;2023-05-03T05:39:49;102751.44;;;4.33;100.00
60307;BME280;46155;52.364;6.580;2023-05-03T05:42:15;102745.63;;;4.73;100.00
60307;BME280;46155;52.364;6.580;2023-05-03T05:44:40;102753.13;;;4.93;100.00
60307;BME280;46155;52.364;6.580;2023-05-03T05:47:07;102750.81;;;5.10;100.00
60307;BME280;46155;52.364;6.580;2023-05-03T05:49:33;102749.91;;;5.49;100.00
60307;BME280;46155;52.364;6.580;2023-05-03T05:51:58;102744.66;;;5.72;97.90
60307;BME280;46155;52.364;6.580;2023-05-03T05:54:24;102743.91;;;5.73;97.25
60307;BME280;46155;52.364;6.580;2023-05-03T05:56:49;102752.06;;;5.76;97.77
60307;BME280;46155;52.364;6.580;2023-05-03T05:59:15;102747.34;;;6.04;96.76
60307;BME280;46155;52.364;6.580;2023-05-03T06:01:40;102746.44;;;6.19;96.98
60307;BME280;46155;52.364;6.580;2023-05-03T06:04:09;102749.84;;;6.43;95.29
60307;BME280;46155;52.364;6.580;2023-05-03T06:06:34;102744.94;;;6.46;93.30
60307;BME280;46155;52.364;6.580;2023-05-03T06:09:00;102755.59;;;6.48;91.71
60307;BME280;46155;52.364;6.580;2023-05-03T06:11:26;102760.00;;;6.49;93.01
60307;BME280;46155;52.364;6.580;2023-05-03T06:13:51;102729.28;;;6.46;92.05
60307;BME280;46155;52.364;6.580;2023-05-03T06:16:16;102755.50;;;6.80;93.44
60307;BME280;46155;52.364;6.580;2023-05-03T06:18:42;102761.16;;;6.76;89.58
60307;BME280;46155;52.364;6.580;2023-05-03T06:21:07;102764.91;;;6.86;90.10
60307;BME280;46155;52.364;6.580;2023-05-03T06:23:33;102770.91;;;6.85;89.88
60307;BME280;46155;52.364;6.580;2023-05-03T06:25:59;102749.47;;;6.72;91.41
60307;BME280;46155;52.364;6.580;2023-05-03T06:28:24;102770.28;;;7.13;92.37
60307;BME280;46155;52.364;6.580;2023-05-03T06:30:49;102770.69;;;7.00;87.83
60307;BME280;46155;52.364;6.580;2023-05-03T06:33:16;102768.13;;;6.84;87.39
60307;BME280;46155;52.364;6.580;2023-05-03T06:35:41;102769.59;;;6.98;89.70
60307;BME280;46155;52.364;6.580;2023-05-03T06:38:07;102773.69;;;7.45;91.24
60307;BME280;46155;52.364;6.580;2023-05-03T06:40:33;102767.78;;;7.64;90.00
60307;BME280;46155;52.364;6.580;2023-05-03T06:42:58;102764.31;;;7.89;87.19
60307;BME280;46155;52.364;6.580;2023-05-03T06:45:24;102758.25;;;8.15;87.09
60307;BME280;46155;52.364;6.580;2023-05-03T06:47:49;102749.78;;;8.35;83.27
60307;BME280;46155;52.364;6.580;2023-05-03T06:50:15;102746.75;;;8.48;85.85
60307;BME280;46155;52.364;6.580;2023-05-03T06:52:40;102740.81;;;8.42;78.87
60307;BME280;46155;52.364;6.580;2023-05-03T06:55:06;102758.53;;;8.09;77.55
60307;BME280;46155;52.364;6.580;2023-05-03T06:57:32;102758.63;;;7.93;77.73
60307;BME280;46155;52.364;6.580;2023-05-03T06:59:57;102756.31;;;7.97;79.23
60307;BME280;46155;52.364;6.580;2023-05-03T07:02:23;102760.75;;;7.80;77.55
60307;BME280;46155;52.364;6.580;2023-05-03T07:04:50;102750.78;;;7.93;77.87
60307;BME280;46155;52.364;6.580;2023-05-03T07:07:15;102743.59;;;8.08;78.92
60307;BME280;46155;52.364;6.580;2023-05-03T07:09:41;102743.28;;;8.05;77.62
60307;BME280;46155;52.364;6.580;2023-05-03T07:12:06;102735.25;;;7.95;76.26
60307;BME280;46155;52.364;6.580;2023-05-03T07:14:32;102742.03;;;8.10;76.33
60307;BME280;46155;52.364;6.580;2023-05-03T07:16:57;102740.69;;;8.23;78.15
60307;BME280;46155;52.364;6.580;2023-05-03T07:19:22;102743.34;;;8.49;76.05
60307;BME280;46155;52.364;6.580;2023-05-03T07:21:48;102739.31;;;8.26;73.94
60307;BME280;46155;52.364;6.580;2023-05-03T07:24:13;102740.22;;;8.18;73.65
60307;BME280;46155;52.364;6.580;2023-05-03T07:26:38;102740.69;;;8.14;73.34
60307;BME280;46155;52.364;6.580;2023-05-03T07:29:04;102720.84;;;8.42;74.15
60307;BME280;46155;52.364;6.580;2023-05-03T07:31:29;102738.72;;;8.55;75.72
60307;BME280;46155;52.364;6.580;2023-05-03T07:33:55;102745.19;;;8.68;71.66
60307;BME280;46155;52.364;6.580;2023-05-03T07:36:20;102743.03;;;8.72;72.98
60307;BME280;46155;52.364;6.580;2023-05-03T07:38:46;102728.25;;;8.55;74.10
60307;BME280;46155;52.364;6.580;2023-05-03T07:41:11;102732.53;;;8.37;72.17
60307;BME280;46155;52.364;6.580;2023-05-03T07:43:36;102731.91;;;8.40;73.43
60307;BME280;46155;52.364;6.580;2023-05-03T07:46:02;102727.34;;;8.55;73.75
60307;BME280;46155;52.364;6.580;2023-05-03T07:48:27;102729.00;;;8.81;73.92
60307;BME280;46155;52.364;6.580;2023-05-03T07:50:53;102731.00;;;8.66;72.35
60307;BME280;46155;52.364;6.580;2023-05-03T07:53:18;102738.22;;;8.07;71.90
60307;BME280;46155;52.364;6.580;2023-05-03T07:55:43;102727.25;;;7.93;72.31
60307;BME280;46155;52.364;6.580;2023-05-03T07:58:08;102722.66;;;8.17;74.19
60307;BME280;46155;52.364;6.580;2023-05-03T08:00:34;102709.88;;;7.94;75.11
60307;BME280;46155;52.364;6.580;2023-05-03T08:02:59;102726.66;;;8.05;75.23
60307;BME280;46155;52.364;6.580;2023-05-03T08:05:27;102734.66;;;8.06;74.85
60307;BME280;46155;52.364;6.580;2023-05-03T08:07:53;102720.50;;;7.96;74.31
60307;BME280;46155;52.364;6.580;2023-05-03T08:10:18;102708.19;;;8.03;76.18
60307;BME280;46155;52.364;6.580;2023-05-03T08:12:44;102715.88;;;8.19;75.42
60307;BME280;46155;52.364;6.580;2023-05-03T08:15:10;102711.59;;;8.37;73.74
60307;BME280;46155;52.364;6.580;2023-05-03T08:17:42;102698.22;;;8.25;72.71
60307;BME280;46155;52.364;6.580;2023-05-03T08:20:08;102713.13;;;8.88;75.43
60307;BME280;46155;52.364;6.580;2023-05-03T08:22:33;102707.34;;;9.09;71.93
60307;BME280;46155;52.364;6.580;2023-05-03T08:25:03;102709.66;;;9.06;70.61
60307;BME280;46155;52.364;6.580;2023-05-03T08:27:29;102718.59;;;9.08;71.47
60307;BME280;46155;52.364;6.580;2023-05-03T08:29:55;102715.28;;;8.83;71.04
60307;BME280;46155;52.364;6.580;2023-05-03T08:32:20;102705.63;;;9.10;73.97
60307;BME280;46155;52.364;6.580;2023-05-03T08:34:46;102703.63;;;9.16;73.30
60307;BME280;46155;52.364;6.580;2023-05-03T08:37:11;102703.28;;;9.58;69.93
60307;BME280;46155;52.364;6.580;2023-05-03T08:39:37;102699.00;;;9.50;66.02
60307;BME280;46155;52.364;6.580;2023-05-03T08:42:06;102690.72;;;9.09;68.00
60307;BME280;46155;52.364;6.580;2023-05-03T08:44:36;102696.06;;;9.19;68.43
60307;BME280;46155;52.364;6.580;2023-05-03T08:47:02;102701.94;;;9.08;68.68
60307;BME280;46155;52.364;6.580;2023-05-03T08:49:30;102700.88;;;9.42;70.04
60307;BME280;46155;52.364;6.580;2023-05-03T08:51:55;102690.81;;;9.56;70.74
60307;BME280;46155;52.364;6.580;2023-05-03T08:54:21;102698.84;;;9.76;65.78
60307;BME280;46155;52.364;6.580;2023-05-03T08:56:48;102693.31;;;9.45;66.48
60307;BME280;46155;52.364;6.580;2023-05-03T08:59:13;102704.50;;;9.25;65.99
60307;BME280;46155;52.364;6.580;2023-05-03T09:01:41;102699.13;;;9.24;67.12
60307;BME280;46155;52.364;6.580;2023-05-03T09:04:08;102705.22;;;9.42;69.83
60307;BME280;46155;52.364;6.580;2023-05-03T09:06:34;102705.06;;;9.68;71.79
60307;BME280;46155;52.364;6.580;2023-05-03T09:09:02;102706.47;;;10.11;67.72
60307;BME280;46155;52.364;6.580;2023-05-03T09:11:32;102707.53;;;9.67;64.78
60307;BME280;46155;52.364;6.580;2023-05-03T09:14:16;102708.22;;;10.02;66.48
60307;BME280;46155;52.364;6.580;2023-05-03T09:16:43;102708.00;;;9.90;65.62
60307;BME280;46155;52.364;6.580;2023-05-03T09:19:09;102697.59;;;9.81;66.25
60307;BME280;46155;52.364;6.580;2023-05-03T09:21:41;102700.09;;;10.18;66.87
60307;BME280;46155;52.364;6.580;2023-05-03T09:24:17;102695.63;;;9.98;63.16
60307;BME280;46155;52.364;6.580;2023-05-03T09:26:44;102694.97;;;9.81;64.45
60307;BME280;46155;52.364;6.580;2023-05-03T09:29:26;102692.41;;;9.73;65.08
60307;BME280;46155;52.364;6.580;2023-05-03T09:32:03;102690.81;;;10.03;66.64
60307;BME280;46155;52.364;6.580;2023-05-03T09:34:30;102699.53;;;10.50;63.93
60307;BME280;46155;52.364;6.580;2023-05-03T09:36:56;102696.16;;;10.80;63.18
60307;BME280;46155;52.364;6.580;2023-05-03T09:39:21;102698.31;;;10.95;60.27
60307;BME280;46155;52.364;6.580;2023-05-03T09:41:47;102698.69;;;10.60;62.15
60307;BME280;46155;52.364;6.580;2023-05-03T09:44:12;102700.03;;;10.27;62.18
60307;BME280;46155;52.364;6.580;2023-05-03T09:46:38;102696.56;;;10.56;64.44
60307;BME280;46155;52.364;6.580;2023-05-03T09:49:03;102702.56;;;10.74;61.20
60307;BME280;46155;52.364;6.580;2023-05-03T09:51:30;102708.22;;;10.78;61.49
60307;BME280;46155;52.364;6.580;2023-05-03T09:53:58;102711.63;;;10.77;61.33
60307;BME280;46155;52.364;6.580;2023-05-03T09:56:24;102704.56;;;10.76;61.26
60307;BME280;46155;52.364;6.580;2023-05-03T09:58:52;102707.41;;;10.69;61.03
60307;BME280;46155;52.364;6.580;2023-05-03T10:01:18;102706.19;;;10.65;61.15
60307;BME280;46155;52.364;6.580;2023-05-03T10:03:47;102704.66;;;10.67;60.66
60307;BME280;46155;52.364;6.580;2023-05-03T10:06:30;102689.88;;;10.59;63.01
60307;BME280;46155;52.364;6.580;2023-05-03T10:09:13;102692.34;;;10.87;62.58
60307;BME280;46155;52.364;6.580;2023-05-03T10:11:44;102685.97;;;11.04;62.76
60307;BME280;46155;52.364;6.580;2023-05-03T10:14:12;102684.97;;;11.12;61.36
60307;BME280;46155;52.364;6.580;2023-05-03T10:16:40;102687.03;;;10.96;62.49
60307;BME280;46155;52.364;6.580;2023-05-03T10:20:07;102685.66;;;11.20;61.22
60307;BME280;46155;52.364;6.580;2023-05-03T10:22:10;102693.34;;;11.08;61.00
60307;BME280;46155;52.364;6.580;2023-05-03T10:24:37;102687.44;;;11.00;60.69
60307;BME280;46155;52.364;6.580;2023-05-03T10:27:24;102681.59;;;10.94;61.72
60307;BME280;46155;52.364;6.580;2023-05-03T10:29:50;102669.91;;;10.80;59.87
60307;BME280;46155;52.364;6.580;2023-05-03T10:32:33;102673.28;;;11.09;60.59
60307;BME280;46155;52.364;6.580;2023-05-03T10:37:29;102676.56;;;11.16;59.68
60307;BME280;46155;52.364;6.580;2023-05-03T10:40:04;102676.78;;;10.99;57.31
60307;BME280;46155;52.364;6.580;2023-05-03T10:42:30;102682.16;;;10.90;58.36
60307;BME280;46155;52.364;6.580;2023-05-03T10:44:55;102681.28;;;11.10;60.93
60307;BME280;46155;52.364;6.580;2023-05-03T10:47:22;102676.88;;;11.40;59.70
60307;BME280;46155;52.364;6.580;2023-05-03T10:55:23;102674.78;;;11.46;60.99
60307;BME280;46155;52.364;6.580;2023-05-03T10:57:55;102681.25;;;11.50;58.59
60307;BME280;46155;52.364;6.580;2023-05-03T11:05:43;102669.63;;;11.27;58.70
60307;BME280;46155;52.364;6.580;2023-05-03T11:08:14;102660.16;;;11.40;60.33
60307;BME280;46155;52.364;6.580;2023-05-03T11:10:43;102654.94;;;11.60;59.12
60307;BME280;46155;52.364;6.580;2023-05-03T11:13:09;102652.84;;;11.97;60.44
60307;BME280;46155;52.364;6.580;2023-05-03T11:15:34;102641.25;;;11.75;57.76
60307;BME280;46155;52.364;6.580;2023-05-03T11:18:00;102640.47;;;11.96;58.68
60307;BME280;46155;52.364;6.580;2023-05-03T11:20:26;102636.41;;;12.00;57.97
60307;BME280;46155;52.364;6.580;2023-05-03T11:22:51;102633.09;;;11.71;57.36
60307;BME280;46155;52.364;6.580;2023-05-03T11:25:17;102646.66;;;11.76;57.03
60307;BME280;46155;52.364;6.580;2023-05-03T11:27:43;102637.31;;;11.80;58.27
60307;BME280;46155;52.364;6.580;2023-05-03T11:30:11;102644.66;;;12.15;58.77
60307;BME280;46155;52.364;6.580;2023-05-03T11:32:36;102638.72;;;12.28;56.65
60307;BME280;46155;52.364;6.580;2023-05-03T11:35:02;102634.03;;;12.56;57.97
60307;BME280;46155;52.364;6.580;2023-05-03T11:37:30;102641.22;;;12.16;56.60
60307;BME280;46155;52.364;6.580;2023-05-03T11:39:56;102621.66;;;12.12;59.48
60307;BME280;46155;52.364;6.580;2023-05-03T11:42:21;102638.06;;;11.89;56.70
60307;BME280;46155;52.364;6.580;2023-05-03T11:44:49;102625.59;;;11.66;56.30
60307;BME280;46155;52.364;6.580;2023-05-03T11:47:14;102625.09;;;11.60;58.36
60307;BME280;46155;52.364;6.580;2023-05-03T11:49:39;102619.41;;;11.86;57.44
60307;BME280;46155;52.364;6.580;2023-05-03T11:52:05;102625.34;;;12.04;57.98
60307;BME280;46155;52.364;6.580;2023-05-03T11:54:30;102622.34;;;11.99;56.20
60307;BME280;46155;52.364;6.580;2023-05-03T11:56:56;102625.22;;;12.02;55.21
60307;BME280;46155;52.364;6.580;2023-05-03T11:59:38;102623.38;;;12.01;56.26
60307;BME280;46155;52.364;6.580;2023-05-03T12:02:06;102623.78;;;12.38;56.96
60307;BME280;46155;52.364;6.580;2023-05-03T12:04:31;102609.00;;;12.51;58.64
60307;BME280;46155;52.364;6.580;2023-05-03T12:06:57;102619.31;;;12.70;56.38
60307;BME280;46155;52.364;6.580;2023-05-03T12:09:24;102624.44;;;12.46;55.31
60307;BME280;46155;52.364;6.580;2023-05-03T12:11:50;102623.06;;;12.29;55.77
60307;BME280;46155;52.364;6.580;2023-05-03T12:14:15;102616.97;;;12.30;54.78
60307;BME280;46155;52.364;6.580;2023-05-03T12:16:49;102611.75;;;12.20;54.68
60307;BME280;46155;52.364;6.580;2023-05-03T12:19:28;102604.19;;;12.35;55.30
60307;BME280;46155;52.364;6.580;2023-05-03T12:21:53;102614.63;;;12.55;55.15
60307;BME280;46155;52.364;6.580;2023-05-03T12:24:19;102613.91;;;12.46;54.09
60307;BME280;46155;52.364;6.580;2023-05-03T12:26:50;102606.44;;;12.30;53.12
60307;BME280;46155;52.364;6.580;2023-05-03T12:29:15;102603.78;;;12.40;55.03
60307;BME280;46155;52.364;6.580;2023-05-03T12:31:41;102598.34;;;12.49;54.38
60307;BME280;46155;52.364;6.580;2023-05-03T12:34:07;102588.66;;;12.60;53.76
60307;BME280;46155;52.364;6.580;2023-05-03T12:36:33;102590.94;;;12.55;51.59
60307;BME280;46155;52.364;6.580;2023-05-03T12:38:59;102590.81;;;12.54;52.73
60307;BME280;46155;52.364;6.580;2023-05-03T12:41:25;102593.44;;;12.54;52.49
60307;BME280;46155;52.364;6.580;2023-05-03T12:43:52;102579.69;;;12.36;53.25
60307;BME280;46155;52.364;6.580;2023-05-03T12:46:18;102575.34;;;12.36;53.08
60307;BME280;46155;52.364;6.580;2023-05-03T12:48:44;102572.06;;;12.61;54.50
60307;BME280;46155;52.364;6.580;2023-05-03T12:51:10;102576.31;;;12.59;51.16
60307;BME280;46155;52.364;6.580;2023-05-03T12:53:35;102567.72;;;12.62;52.54
60307;BME280;46155;52.364;6.580;2023-05-03T12:56:00;102563.22;;;12.83;51.64
60307;BME280;46155;52.364;6.580;2023-05-03T12:58:26;102564.72;;;12.79;52.54
60307;BME280;46155;52.364;6.580;2023-05-03T13:00:51;102556.47;;;12.74;52.81
60307;BME280;46155;52.364;6.580;2023-05-03T13:03:17;102559.25;;;12.66;53.37
60307;BME280;46155;52.364;6.580;2023-05-03T13:05:43;102554.31;;;12.81;54.45
60307;BME280;46155;52.364;6.580;2023-05-03T13:08:08;102549.34;;;12.96;54.07
60307;BME280;46155;52.364;6.580;2023-05-03T13:10:38;102551.22;;;13.08;52.84
60307;BME280;46155;52.364;6.580;2023-05-03T13:13:05;102534.75;;;12.89;51.76
60307;BME280;46155;52.364;6.580;2023-05-03T13:15:31;102537.63;;;12.92;51.78
60307;BME280;46155;52.364;6.580;2023-05-03T13:17:59;102527.81;;;13.01;52.47
60307;BME280;46155;52.364;6.580;2023-05-03T13:20:30;102529.72;;;13.26;53.17
60307;BME280;46155;52.364;6.580;2023-05-03T13:22:56;102524.22;;;13.23;52.36
60307;BME280;46155;52.364;6.580;2023-05-03T13:25:21;102520.50;;;13.09;50.94
60307;BME280;46155;52.364;6.580;2023-05-03T13:27:47;102519.31;;;13.05;51.05
60307;BME280;46155;52.364;6.580;2023-05-03T13:30:14;102510.28;;;13.14;53.88
60307;BME280;46155;52.364;6.580;2023-05-03T13:32:40;102509.06;;;13.32;52.87
60307;BME280;46155;52.364;6.580;2023-05-03T13:35:06;102500.25;;;12.86;53.13
60307;BME280;46155;52.364;6.580;2023-05-03T13:37:33;102500.72;;;12.92;53.79
60307;BME280;46155;52.364;6.580;2023-05-03T13:39:59;102508.97;;;12.97;52.32
60307;BME280;46155;52.364;6.580;2023-05-03T13:42:24;102501.19;;;12.98;51.97
60307;BME280;46155;52.364;6.580;2023-05-03T13:44:49;102499.06;;;13.04;51.86
60307;BME280;46155;52.364;6.580;2023-05-03T13:47:15;102486.00;;;12.84;51.76
60307;BME280;46155;52.364;6.580;2023-05-03T13:49:40;102491.59;;;12.99;53.55
60307;BME280;46155;52.364;6.580;2023-05-03T13:52:05;102493.34;;;13.22;51.69
60307;BME280;46155;52.364;6.580;2023-05-03T13:54:31;102488.06;;;13.10;49.81
60307;BME280;46155;52.364;6.580;2023-05-03T13:56:56;102484.59;;;13.11;51.58
60307;BME280;46155;52.364;6.580;2023-05-03T13:59:22;102477.84;;;13.15;51.18
60307;BME280;46155;52.364;6.580;2023-05-03T14:01:48;102470.06;;;13.28;51.60
60307;BME280;46155;52.364;6.580;2023-05-03T14:04:13;102474.91;;;13.34;51.49
60307;BME280;46155;52.364;6.580;2023-05-03T14:06:39;102476.63;;;13.21;50.81
60307;BME280;46155;52.364;6.580;2023-05-03T14:09:04;102463.84;;;13.04;51.06
60307;BME280;46155;52.364;6.580;2023-05-03T14:11:30;102468.19;;;13.03;50.57
60307;BME280;46155;52.364;6.580;2023-05-03T14:13:56;102462.81;;;13.14;51.49
60307;BME280;46155;52.364;6.580;2023-05-03T14:16:23;102451.50;;;13.26;52.47
60307;BME280;46155;52.364;6.580;2023-05-03T14:18:49;102469.28;;;13.29;51.25
60307;BME280;46155;52.364;6.580;2023-05-03T14:21:16;102466.19;;;13.23;50.75
60307;BME280;46155;52.364;6.580;2023-05-03T14:23:44;102449.97;;;13.06;51.16
60307;BME280;46155;52.364;6.580;2023-05-03T14:26:11;102451.38;;;13.01;52.32
60307;BME280;46155;52.364;6.580;2023-05-03T14:28:36;102440.50;;;13.20;51.66
60307;BME280;46155;52.364;6.580;2023-05-03T14:31:03;102433.25;;;13.30;51.96
60307;BME280;46155;52.364;6.580;2023-05-03T14:33:28;102436.94;;;13.32;51.19
60307;BME280;46155;52.364;6.580;2023-05-03T14:35:54;102442.91;;;13.29;51.13
60307;BME280;46155;52.364;6.580;2023-05-03T14:38:19;102440.78;;;13.47;52.47
60307;BME280;46155;52.364;6.580;2023-05-03T14:40:46;102435.47;;;13.35;50.89
60307;BME280;46155;52.364;6.580;2023-05-03T14:43:11;102439.41;;;13.40;50.73
60307;BME280;46155;52.364;6.580;2023-05-03T14:45:36;102445.25;;;13.36;49.12
60307;BME280;46155;52.364;6.580;2023-05-03T14:48:02;102433.81;;;13.14;50.10
60307;BME280;46155;52.364;6.580;2023-05-03T14:50:27;102433.59;;;13.22;49.92
60307;BME280;46155;52.364;6.580;2023-05-03T14:52:53;102434.78;;;13.26;50.49
60307;BME280;46155;52.364;6.580;2023-05-03T14:55:18;102427.19;;;13.19;49.96
60307;BME280;46155;52.364;6.580;2023-05-03T14:57:44;102426.06;;;13.27;50.00
60307;BME280;46155;52.364;6.580;2023-05-03T15:00:09;102415.06;;;13.33;49.42
60307;BME280;46155;52.364;6.580;2023-05-03T15:02:41;102420.53;;;13.24;49.98
60307;BME280;46155;52.364;6.580;2023-05-03T15:05:07;102412.94;;;13.05;49.90
60307;BME280;46155;52.364;6.580;2023-05-03T15:07:33;102399.88;;;13.06;50.66
60307;BME280;46155;52.364;6.580;2023-05-03T15:10:01;102412.75;;;13.25;51.49
60307;BME280;46155;52.364;6.580;2023-05-03T15:12:30;102401.56;;;13.40;51.28
60307;BME280;46155;52.364;6.580;2023-05-03T15:14:57;102399.50;;;13.59;51.48
60307;BME280;46155;52.364;6.580;2023-05-03T15:17:22;102407.06;;;13.67;50.66
60307;BME280;46155;52.364;6.580;2023-05-03T15:19:48;102396.50;;;13.67;50.60
60307;BME280;46155;52.364;6.580;2023-05-03T15:22:14;102393.41;;;13.72;49.68
60307;BME280;46155;52.364;6.580;2023-05-03T15:24:41;102386.38;;;13.73;49.94
60307;BME280;46155;52.364;6.580;2023-05-03T15:27:06;102388.47;;;13.65;49.78
60307;BME280;46155;52.364;6.580;2023-05-03T15:29:32;102379.72;;;13.66;49.52
60307;BME280;46155;52.364;6.580;2023-05-03T15:31:57;102375.84;;;13.61;49.12
60307;BME280;46155;52.364;6.580;2023-05-03T15:34:22;102376.72;;;13.73;48.50
60307;BME280;46155;52.364;6.580;2023-05-03T15:36:48;102383.28;;;13.55;48.53
60307;BME280;46155;52.364;6.580;2023-05-03T15:39:13;102378.38;;;13.59;49.70
60307;BME280;46155;52.364;6.580;2023-05-03T15:41:38;102382.94;;;13.74;50.00
60307;BME280;46155;52.364;6.580;2023-05-03T15:44:04;102379.06;;;13.57;49.08
60307;BME280;46155;52.364;6.580;2023-05-03T15:46:33;102378.59;;;13.63;49.47
60307;BME280;46155;52.364;6.580;2023-05-03T15:48:58;102374.44;;;13.66;48.74
60307;BME280;46155;52.364;6.580;2023-05-03T15:51:24;102370.88;;;13.77;49.67
60307;BME280;46155;52.364;6.580;2023-05-03T15:53:50;102355.19;;;13.67;48.69
60307;BME280;46155;52.364;6.580;2023-05-03T15:56:15;102367.09;;;13.74;49.30
60307;BME280;46155;52.364;6.580;2023-05-03T15:58:41;102367.53;;;13.80;49.70
60307;BME280;46155;52.364;6.580;2023-05-03T16:01:06;102363.16;;;13.81;49.88
60307;BME280;46155;52.364;6.580;2023-05-03T16:03:31;102369.38;;;13.81;48.82